createdAt,value
2019-06-15T00:00:05.795Z,8.03
2019-06-15T00:02:34.394Z,4.90
2019-06-15T00:05:02.951Z,5.63
2019-06-15T00:07:31.595Z,4.30
2019-06-15T00:10:00.193Z,5.20
2019-06-15T00:12:28.777Z,4.50
2019-06-15T00:14:57.336Z,5.33
2019-06-15T00:17:25.950Z,6.63
2019-06-15T00:19:54.582Z,6.17
2019-06-15T00:22:23.263Z,4.83
2019-06-15T00:24:51.937Z,5.40
2019-06-15T00:27:20.500Z,5.50
2019-06-15T00:29:50.956Z,4.13
2019-06-15T00:32:19.577Z,4.50
2019-06-15T00:34:48.125Z,4.87
2019-06-15T00:37:16.694Z,5.07
2019-06-15T00:39:45.358Z,5.13
2019-06-15T00:42:13.962Z,4.70
2019-06-15T00:44:42.778Z,4.80
2019-06-15T00:47:11.392Z,6.93
2019-06-15T00:49:39.962Z,5.53
2019-06-15T00:52:08.534Z,8.17
2019-06-15T00:54:49.685Z,4.00
2019-06-15T00:57:07.372Z,5.07
2019-06-15T00:59:35.929Z,5.03
2019-06-15T01:02:04.597Z,5.10
2019-06-15T01:04:33.152Z,6.77
2019-06-15T01:07:01.723Z,5.90
2019-06-15T01:09:30.317Z,4.53
2019-06-15T01:11:58.877Z,5.60
2019-06-15T01:14:27.434Z,5.23
2019-06-15T01:16:56.085Z,7.10
2019-06-15T01:19:32.145Z,11.07
2019-06-15T01:22:00.890Z,6.47
2019-06-15T01:24:29.475Z,6.20
2019-06-15T01:26:58.104Z,7.23
2019-06-15T01:29:26.686Z,5.10
2019-06-15T01:31:55.253Z,6.30
2019-06-15T01:34:24.085Z,5.37
2019-06-15T01:36:52.806Z,6.23
2019-06-15T01:39:21.326Z,5.40
2019-06-15T01:41:49.889Z,6.97
2019-06-15T01:44:18.489Z,5.47
2019-06-15T01:46:47.106Z,5.03
2019-06-15T01:49:15.715Z,6.00
2019-06-15T01:51:44.505Z,6.33
2019-06-15T01:54:13.087Z,5.77
2019-06-15T01:56:41.791Z,5.10
2019-06-15T01:59:10.367Z,6.27
2019-06-15T02:01:38.944Z,7.40
2019-06-15T02:04:07.572Z,6.93
2019-06-15T02:06:36.251Z,5.37
2019-06-15T02:09:08.222Z,6.70
2019-06-15T02:11:36.918Z,5.87
2019-06-15T02:14:05.948Z,5.97
2019-06-15T02:16:34.534Z,6.27
2019-06-15T02:19:03.218Z,5.97
2019-06-15T02:21:31.908Z,7.40
2019-06-15T02:24:00.466Z,6.10
2019-06-15T02:26:29.320Z,5.97
2019-06-15T02:28:57.989Z,6.03
2019-06-15T02:31:26.562Z,8.17
2019-06-15T02:33:55.217Z,6.90
2019-06-15T02:36:23.788Z,7.43
2019-06-15T02:38:52.426Z,6.53
2019-06-15T02:41:21.215Z,6.53
2019-06-15T02:43:49.883Z,8.43
2019-06-15T02:46:18.584Z,6.50
2019-06-15T02:48:47.227Z,6.60
2019-06-15T02:51:15.956Z,7.10
2019-06-15T02:53:45.533Z,8.00
2019-06-15T02:56:14.375Z,6.60
2019-06-15T02:58:43.075Z,8.93
2019-06-15T03:01:11.696Z,6.57
2019-06-15T03:03:40.287Z,6.47
2019-06-15T03:06:08.922Z,8.07
2019-06-15T03:08:38.031Z,6.43
2019-06-15T03:11:06.703Z,6.57
2019-06-15T03:13:36.159Z,6.87
2019-06-15T03:16:06.091Z,10.73
2019-06-15T03:18:34.725Z,6.67
2019-06-15T03:21:03.445Z,7.20
2019-06-15T03:23:32.065Z,7.03
2019-06-15T03:26:05.474Z,6.57
2019-06-15T03:28:30.975Z,7.27
2019-06-15T03:30:59.554Z,7.33
2019-06-15T03:33:28.354Z,7.00
2019-06-15T03:35:56.988Z,7.27
2019-06-15T03:38:25.657Z,7.00
2019-06-15T03:40:54.252Z,7.10
2019-06-15T03:43:22.815Z,8.97
2019-06-15T03:45:51.376Z,10.20
2019-06-15T03:48:19.975Z,7.70
2019-06-15T03:50:48.535Z,7.43
2019-06-15T03:53:17.112Z,8.43
2019-06-15T03:55:46.577Z,7.87
2019-06-15T03:58:15.144Z,7.30
2019-06-15T04:00:58.908Z,8.60
2019-06-15T04:03:27.526Z,8.63
2019-06-15T04:05:56.105Z,8.00
2019-06-15T04:08:24.692Z,7.80
2019-06-15T04:10:53.270Z,8.07
2019-06-15T04:13:21.820Z,7.63
2019-06-15T04:15:50.436Z,7.47
2019-06-15T04:18:19.092Z,7.63
2019-06-15T04:20:47.686Z,9.03
2019-06-15T04:23:16.318Z,7.27
2019-06-15T04:25:44.892Z,6.57
2019-06-15T04:28:13.544Z,7.57
2019-06-15T04:30:43.438Z,7.53
2019-06-15T04:33:12.037Z,7.80
2019-06-15T04:35:40.683Z,7.53
2019-06-15T04:38:09.244Z,7.53
2019-06-15T04:40:37.836Z,8.07
2019-06-15T04:43:06.380Z,7.57
2019-06-15T04:45:34.973Z,8.30
2019-06-15T04:48:03.592Z,7.50
2019-06-15T04:50:32.150Z,8.67
2019-06-15T04:53:00.725Z,8.87
2019-06-15T04:55:29.283Z,8.17
2019-06-15T04:57:58.785Z,8.00
2019-06-15T05:00:27.508Z,9.83
2019-06-15T05:02:56.246Z,8.57
2019-06-15T05:05:24.823Z,8.60
2019-06-15T05:07:53.821Z,8.60
2019-06-15T05:10:22.403Z,9.30
2019-06-15T05:12:50.987Z,7.60
2019-06-15T05:15:19.871Z,7.50
2019-06-15T05:17:54.297Z,9.10
2019-06-15T05:20:22.921Z,11.80
2019-06-15T05:22:51.537Z,9.87
2019-06-15T05:25:20.249Z,13.03
2019-06-15T05:27:48.916Z,10.50
2019-06-15T05:30:17.815Z,8.57
2019-06-15T05:32:46.504Z,13.40
2019-06-15T05:35:15.392Z,11.97
2019-06-15T05:37:43.961Z,8.40
2019-06-15T05:40:12.785Z,9.00
2019-06-15T05:42:41.362Z,7.73
2019-06-15T05:45:10.684Z,11.47
2019-06-15T05:47:43.222Z,8.43
2019-06-15T05:50:13.536Z,8.73
2019-06-15T05:52:42.285Z,9.73
2019-06-15T05:55:11.085Z,7.77
2019-06-15T05:57:39.663Z,11.43
2019-06-15T06:00:10.398Z,8.10
2019-06-15T06:02:38.961Z,10.23
2019-06-15T06:05:07.972Z,10.30
2019-06-15T06:07:36.537Z,6.70
2019-06-15T06:10:09.915Z,8.27
2019-06-15T06:12:37.592Z,7.60
2019-06-15T06:15:09.897Z,7.17
2019-06-15T06:17:38.512Z,6.10
2019-06-15T06:20:08.858Z,8.13
2019-06-15T06:22:37.410Z,8.80
2019-06-15T06:25:08.274Z,5.53
2019-06-15T06:27:37.092Z,9.57
2019-06-15T06:30:09.847Z,4.87
2019-06-15T06:32:38.465Z,6.50
2019-06-15T06:35:08.419Z,6.80
2019-06-15T06:37:37.020Z,7.00
2019-06-15T06:40:08.696Z,13.63
2019-06-15T06:42:37.408Z,6.60
2019-06-15T06:45:08.884Z,6.47
2019-06-15T06:47:37.462Z,9.87
2019-06-15T06:50:10.103Z,10.67
2019-06-15T06:52:38.663Z,8.03
2019-06-15T06:55:07.859Z,7.47
2019-06-15T06:57:50.767Z,7.70
2019-06-15T07:00:07.498Z,6.63
2019-06-15T07:02:36.939Z,7.47
2019-06-15T07:05:06.983Z,5.33
2019-06-15T07:07:35.691Z,6.03
2019-06-15T07:10:07.247Z,7.43
2019-06-15T07:12:35.969Z,7.67
2019-06-15T07:15:06.153Z,8.70
2019-06-15T07:17:34.763Z,9.20
2019-06-15T07:20:05.328Z,4.77
2019-06-15T07:22:33.929Z,9.27
2019-06-15T07:25:02.559Z,9.50
2019-06-15T07:27:31.143Z,4.83
2019-06-15T07:29:59.695Z,8.80
2019-06-15T07:32:28.357Z,7.97
2019-06-15T07:34:56.968Z,6.33
2019-06-15T07:37:25.505Z,6.47
2019-06-15T07:39:54.062Z,5.87
2019-06-15T07:42:22.656Z,5.67
2019-06-15T07:44:51.283Z,9.93
2019-06-15T07:47:19.885Z,9.00
2019-06-15T07:49:48.623Z,10.73
2019-06-15T07:52:17.176Z,8.17
2019-06-15T07:54:45.763Z,8.03
2019-06-15T07:57:14.354Z,6.83
2019-06-15T07:59:43.051Z,10.67
2019-06-15T08:02:11.674Z,8.23
2019-06-15T08:04:41.451Z,7.10
2019-06-15T08:07:10.081Z,5.10
2019-06-15T08:09:38.654Z,9.47
2019-06-15T08:12:07.397Z,8.23
2019-06-15T08:14:36.058Z,7.00
2019-06-15T08:17:04.693Z,9.23
2019-06-15T08:19:33.272Z,5.60
2019-06-15T08:22:01.851Z,8.23
2019-06-15T08:24:30.406Z,7.17
2019-06-15T08:26:59.067Z,5.07
2019-06-15T08:29:27.682Z,11.10
2019-06-15T08:31:56.297Z,8.80
2019-06-15T08:34:25.266Z,10.53
2019-06-15T08:36:53.915Z,7.23
2019-06-15T08:39:22.807Z,8.20
2019-06-15T08:41:51.379Z,7.17
2019-06-15T08:44:19.959Z,6.97
2019-06-15T08:46:48.564Z,6.67
2019-06-15T08:49:17.187Z,7.80
2019-06-15T08:51:46.173Z,7.60
2019-06-15T08:54:14.761Z,6.93
2019-06-15T08:56:43.332Z,6.13
2019-06-15T08:59:11.880Z,5.80
2019-06-15T09:01:40.483Z,5.23
2019-06-15T09:04:09.050Z,6.07
2019-06-15T09:06:38.597Z,9.70
2019-06-15T09:09:08.614Z,6.80
2019-06-15T09:11:37.184Z,8.03
2019-06-15T09:14:06.619Z,3.00
2019-06-15T09:16:35.177Z,7.20
2019-06-15T09:19:03.755Z,6.27
2019-06-15T09:21:32.353Z,5.87
2019-06-15T09:24:00.934Z,2.50
2019-06-15T09:26:29.592Z,3.50
2019-06-15T09:29:10.354Z,3.57
2019-06-15T09:31:28.419Z,3.50
2019-06-15T09:33:57.013Z,1.87
2019-06-15T09:36:25.577Z,6.17
2019-06-15T09:38:54.924Z,5.47
2019-06-15T09:41:23.549Z,4.93
2019-06-15T09:43:52.176Z,4.90
2019-06-15T09:46:21.129Z,4.70
2019-06-15T09:48:49.651Z,3.53
2019-06-15T09:51:18.278Z,1.90
2019-06-15T09:53:46.864Z,2.47
2019-06-15T09:56:15.508Z,3.07
2019-06-15T09:58:44.088Z,5.37
2019-06-15T10:01:12.704Z,8.70
2019-06-15T10:03:41.284Z,1.90
2019-06-15T10:06:11.666Z,1.90
2019-06-15T10:08:40.878Z,2.63
2019-06-15T10:11:18.172Z,4.30
2019-06-15T10:13:46.735Z,2.90
2019-06-15T10:16:15.410Z,2.30
2019-06-15T10:18:43.985Z,5.63
2019-06-15T10:21:12.546Z,2.47
2019-06-15T10:23:41.156Z,1.87
2019-06-15T10:26:09.788Z,3.40
2019-06-15T10:28:38.678Z,3.47
2019-06-15T10:31:07.345Z,4.27
2019-06-15T10:33:35.897Z,2.70
2019-06-15T10:36:04.576Z,3.77
2019-06-15T10:38:33.127Z,3.93
2019-06-15T10:41:01.689Z,4.33
2019-06-15T10:43:30.285Z,2.60
2019-06-15T10:45:58.992Z,2.17
2019-06-15T10:48:27.616Z,3.80
2019-06-15T10:50:56.212Z,2.50
2019-06-15T10:53:24.787Z,3.07
2019-06-15T10:55:53.390Z,8.03
2019-06-15T10:58:21.944Z,2.23
2019-06-15T11:00:50.585Z,2.87
2019-06-15T11:03:19.315Z,2.23
2019-06-15T11:05:47.886Z,4.20
2019-06-15T11:08:16.575Z,3.50
2019-06-15T11:10:54.907Z,1.53
2019-06-15T11:13:23.640Z,2.37
2019-06-15T11:15:52.528Z,2.57
2019-06-15T11:18:28.532Z,1.50
2019-06-15T11:20:58.933Z,1.27
2019-06-15T11:23:27.328Z,2.50
2019-06-15T11:25:55.948Z,1.73
2019-06-15T11:28:24.598Z,2.30
2019-06-15T11:30:53.160Z,2.40
2019-06-15T11:33:21.755Z,1.70
2019-06-15T11:35:50.503Z,4.30
2019-06-15T11:38:19.231Z,3.60
2019-06-15T11:40:47.943Z,2.50
2019-06-15T11:43:16.918Z,1.40
2019-06-15T11:45:46.739Z,4.70
2019-06-15T11:48:15.414Z,3.60
2019-06-15T11:50:44.098Z,1.87
2019-06-15T11:53:13.087Z,4.20
2019-06-15T11:55:41.696Z,7.20
2019-06-15T11:58:10.457Z,1.10
2019-06-15T12:00:42.243Z,1.00
2019-06-15T12:03:11.274Z,1.10
2019-06-15T12:05:39.834Z,5.87
2019-06-15T12:08:08.488Z,1.10
2019-06-15T12:10:37.129Z,2.20
2019-06-15T12:13:05.703Z,2.03
2019-06-15T12:15:34.401Z,1.87
2019-06-15T12:18:03.132Z,2.07
2019-06-15T12:20:31.756Z,1.73
2019-06-15T12:23:00.471Z,2.00
2019-06-15T12:25:29.138Z,1.13
2019-06-15T12:27:58.239Z,1.30
2019-06-15T12:30:47.067Z,1.30
2019-06-15T12:33:11.578Z,0.97
2019-06-15T12:35:40.187Z,1.20
2019-06-15T12:38:09.022Z,1.60
2019-06-15T12:40:37.854Z,2.40
2019-06-15T12:43:06.360Z,2.80
2019-06-15T12:45:35.769Z,2.23
2019-06-15T12:48:04.494Z,1.03
2019-06-15T12:50:33.062Z,3.00
2019-06-15T12:53:01.669Z,1.13
2019-06-15T12:55:30.923Z,1.73
2019-06-15T12:58:00.064Z,0.80
2019-06-15T13:00:38.895Z,6.23
2019-06-15T13:03:07.613Z,2.40
2019-06-15T13:05:36.240Z,1.20
2019-06-15T13:08:05.057Z,1.07
2019-06-15T13:10:33.703Z,2.80
2019-06-15T13:13:02.265Z,1.63
2019-06-15T13:15:30.937Z,2.87
2019-06-15T13:18:00.387Z,1.90
2019-06-15T13:20:29.988Z,2.57
2019-06-15T13:22:59.012Z,2.03
2019-06-15T13:25:27.822Z,1.63
2019-06-15T13:27:56.711Z,2.60
2019-06-15T13:30:25.354Z,3.60
2019-06-15T13:32:53.911Z,1.17
2019-06-15T13:35:22.534Z,1.70
2019-06-15T13:37:51.139Z,3.30
2019-06-15T13:40:19.771Z,4.57
2019-06-15T13:42:48.363Z,1.10
2019-06-15T13:45:18.573Z,2.53
2019-06-15T13:47:47.124Z,1.30
2019-06-15T13:50:15.807Z,2.20
2019-06-15T13:52:44.571Z,1.20
2019-06-15T13:55:13.509Z,7.10
2019-06-15T13:57:42.124Z,2.60
2019-06-15T14:00:11.870Z,1.40
2019-06-15T14:02:40.435Z,2.93
2019-06-15T14:05:09.123Z,2.50
2019-06-15T14:07:37.731Z,2.93
2019-06-15T14:10:06.811Z,3.20
2019-06-15T14:12:35.574Z,4.87
2019-06-15T14:15:07.078Z,1.43
2019-06-15T14:17:39.700Z,1.77
2019-06-15T14:20:07.353Z,1.30
2019-06-15T14:22:36.165Z,2.00
2019-06-15T14:25:07.752Z,1.40
2019-06-15T14:27:36.699Z,2.87
2019-06-15T14:30:09.378Z,1.73
2019-06-15T14:32:38.226Z,3.90
2019-06-15T14:35:10.490Z,2.20
2019-06-15T14:37:39.070Z,4.30
2019-06-15T14:40:08.196Z,5.67
2019-06-15T14:42:36.821Z,1.93
2019-06-15T14:45:07.523Z,2.67
2019-06-15T14:47:36.238Z,1.70
2019-06-15T14:50:06.253Z,2.03
2019-06-15T14:52:34.856Z,2.90
2019-06-15T14:55:03.554Z,1.20
2019-06-15T14:57:32.108Z,1.73
2019-06-15T15:00:05.131Z,1.30
2019-06-15T15:02:31.106Z,1.67
2019-06-15T15:04:59.648Z,4.20
2019-06-15T15:07:28.296Z,1.70
2019-06-15T15:09:56.940Z,1.73
2019-06-15T15:12:26.583Z,2.13
2019-06-15T15:14:56.619Z,0.90
2019-06-15T15:17:26.826Z,1.77
2019-06-15T15:19:57.388Z,1.07
2019-06-15T15:22:29.490Z,1.20
2019-06-15T15:24:58.186Z,1.63
2019-06-15T15:27:27.305Z,2.33
2019-06-15T15:29:57.003Z,1.27
2019-06-15T15:32:31.323Z,2.50
2019-06-15T15:34:56.203Z,1.50
2019-06-15T15:37:26.894Z,2.70
2019-06-15T15:39:56.548Z,3.43
2019-06-15T15:42:26.940Z,1.30
2019-06-15T15:44:56.491Z,3.27
2019-06-15T15:47:27.562Z,1.80
2019-06-15T15:49:57.578Z,1.47
2019-06-15T15:52:27.077Z,1.69
2019-06-15T15:54:56.501Z,0.97
2019-06-15T15:57:26.663Z,3.70
2019-06-15T15:59:56.319Z,0.90
2019-06-15T16:02:35.702Z,1.83
2019-06-15T16:04:57.508Z,1.93
2019-06-15T16:07:27.709Z,1.77
2019-06-15T16:09:56.117Z,0.90
2019-06-15T16:12:24.674Z,1.20
2019-06-15T16:14:56.544Z,2.23
2019-06-15T16:17:26.856Z,2.50
2019-06-15T16:19:56.437Z,1.20
2019-06-15T16:22:26.350Z,1.57
2019-06-15T16:24:58.384Z,1.13
2019-06-15T16:27:27.271Z,2.17
2019-06-15T16:29:58.619Z,1.80
2019-06-15T16:32:27.136Z,1.53
2019-06-15T16:34:55.922Z,1.50
2019-06-15T16:37:26.016Z,1.97
2019-06-15T16:39:54.658Z,3.90
2019-06-15T16:42:26.754Z,2.37
2019-06-15T16:44:56.155Z,1.60
2019-06-15T16:47:27.184Z,2.23
2019-06-15T16:49:56.708Z,3.43
2019-06-15T16:52:26.938Z,1.97
2019-06-15T16:54:59.311Z,1.67
2019-06-15T16:57:27.872Z,1.77
2019-06-15T16:59:56.609Z,1.10
2019-06-15T17:02:26.102Z,1.10
2019-06-15T17:04:56.861Z,1.37
2019-06-15T17:07:26.281Z,4.40
2019-06-15T17:09:56.860Z,1.30
2019-06-15T17:12:26.100Z,1.33
2019-06-15T17:14:54.724Z,1.93
2019-06-15T17:17:23.313Z,1.80
2019-06-15T17:19:54.120Z,1.77
2019-06-15T17:22:22.752Z,1.33
2019-06-15T17:24:51.610Z,1.43
2019-06-15T17:27:20.292Z,1.40
2019-06-15T17:29:48.833Z,2.80
2019-06-15T17:32:17.486Z,2.00
2019-06-15T17:34:46.892Z,1.73
2019-06-15T17:37:17.233Z,1.70
2019-06-15T17:39:46.650Z,1.73
2019-06-15T17:42:16.390Z,2.03
2019-06-15T17:44:46.150Z,1.33
2019-06-15T17:47:16.974Z,1.27
2019-06-15T17:49:46.887Z,2.07
2019-06-15T17:52:16.843Z,1.53
2019-06-15T17:54:46.650Z,1.33
2019-06-15T17:57:15.411Z,1.40
2019-06-15T17:59:46.867Z,1.10
2019-06-15T18:02:16.944Z,1.70
2019-06-15T18:04:47.357Z,2.60
2019-06-15T18:07:16.953Z,1.60
2019-06-15T18:09:46.592Z,1.57
2019-06-15T18:12:16.756Z,2.10
2019-06-15T18:14:46.390Z,1.50
2019-06-15T18:17:17.181Z,1.83
2019-06-15T18:19:47.133Z,2.30
2019-06-15T18:22:21.596Z,1.40
2019-06-15T18:24:50.806Z,1.73
2019-06-15T18:27:21.581Z,1.60
2019-06-15T18:29:50.113Z,1.93
2019-06-15T18:32:18.684Z,3.20
2019-06-15T18:34:47.343Z,1.53
2019-06-15T18:37:17.293Z,1.53
2019-06-15T18:39:47.713Z,1.70
2019-06-15T18:42:16.600Z,1.80
2019-06-15T18:44:47.851Z,3.00
2019-06-15T18:47:17.046Z,3.03
2019-06-15T18:49:47.304Z,5.17
2019-06-15T18:52:17.594Z,2.63
2019-06-15T18:54:47.788Z,2.30
2019-06-15T18:57:17.636Z,2.33
2019-06-15T18:59:47.885Z,1.60
2019-06-15T19:02:16.471Z,2.03
2019-06-15T19:04:45.168Z,2.10
2019-06-15T19:07:16.054Z,4.30
2019-06-15T19:09:46.448Z,4.53
2019-06-15T19:12:16.945Z,1.47
2019-06-15T19:14:46.929Z,1.27
2019-06-15T19:17:16.536Z,1.30
2019-06-15T19:19:46.796Z,1.80
2019-06-15T19:22:17.169Z,1.40
2019-06-15T19:24:50.277Z,1.70
2019-06-15T19:27:17.062Z,2.10
2019-06-15T19:29:46.549Z,1.73
2019-06-15T19:32:17.283Z,1.60
2019-06-15T19:34:50.467Z,3.10
2019-06-15T19:37:16.792Z,3.30
2019-06-15T19:39:47.848Z,1.73
2019-06-15T19:42:25.899Z,1.40
2019-06-15T19:44:56.171Z,1.23
2019-06-15T19:47:26.520Z,1.80
2019-06-15T19:49:56.819Z,2.30
2019-06-15T19:52:27.213Z,1.80
2019-06-15T19:54:55.827Z,2.30
2019-06-15T19:57:24.391Z,3.90
2019-06-15T19:59:53.382Z,3.17
2019-06-15T20:02:22.455Z,3.00
2019-06-15T20:05:00.262Z,3.87
2019-06-15T20:07:21.213Z,2.50
2019-06-15T20:09:49.756Z,2.23
2019-06-15T20:12:21.862Z,2.90
2019-06-15T20:14:48.561Z,2.37
2019-06-15T20:17:17.594Z,4.87
2019-06-15T20:19:46.466Z,2.27
2019-06-15T20:22:17.636Z,1.87
2019-06-15T20:24:47.477Z,2.13
2019-06-15T20:27:16.428Z,2.00
2019-06-15T20:29:47.545Z,3.27
2019-06-15T20:32:17.367Z,2.20
2019-06-15T20:34:46.409Z,2.23
2019-06-15T20:37:16.893Z,3.77
2019-06-15T20:39:46.736Z,2.40
2019-06-15T20:42:16.443Z,2.10
2019-06-15T20:44:46.243Z,2.20
2019-06-15T20:47:15.165Z,2.73
2019-06-15T20:49:46.299Z,2.03
2019-06-15T20:52:16.542Z,2.60
2019-06-15T20:54:46.442Z,3.43
2019-06-15T20:57:16.528Z,2.27
2019-06-15T20:59:47.296Z,2.40
2019-06-15T21:02:16.120Z,2.90
2019-06-15T21:04:44.744Z,2.20
2019-06-15T21:07:16.020Z,5.80
2019-06-15T21:09:43.592Z,2.70
2019-06-15T21:12:12.195Z,2.70
2019-06-15T21:14:40.763Z,2.77
2019-06-15T21:17:09.323Z,3.50
2019-06-15T21:19:37.944Z,2.40
2019-06-15T21:22:06.610Z,6.30
2019-06-15T21:24:37.384Z,2.90
2019-06-15T21:27:06.433Z,2.43
2019-06-15T21:29:36.962Z,3.03
2019-06-15T21:32:05.905Z,3.00
2019-06-15T21:34:36.230Z,3.10
2019-06-15T21:37:06.588Z,3.27
2019-06-15T21:39:36.499Z,2.67
2019-06-15T21:42:05.552Z,3.83
2019-06-15T21:44:36.082Z,2.37
2019-06-15T21:47:06.736Z,2.20
2019-06-15T21:49:35.870Z,4.27
2019-06-15T21:52:07.175Z,3.43
2019-06-15T21:54:36.011Z,4.77
2019-06-15T21:57:07.098Z,3.07
2019-06-15T21:59:37.032Z,3.20
2019-06-15T22:02:06.929Z,3.87
2019-06-15T22:04:36.827Z,2.80
2019-06-15T22:07:06.477Z,2.80
2019-06-15T22:09:36.353Z,2.93
2019-06-15T22:12:06.874Z,3.40
2019-06-15T22:14:35.525Z,3.20
2019-06-15T22:17:06.587Z,3.13
2019-06-15T22:19:36.710Z,4.17
2019-06-15T22:22:06.809Z,2.47
2019-06-15T22:24:36.302Z,3.10
2019-06-15T22:27:06.626Z,2.77
2019-06-15T22:29:36.473Z,2.80
2019-06-15T22:32:06.916Z,2.10
2019-06-15T22:34:36.429Z,2.40
2019-06-15T22:37:06.873Z,2.77
2019-06-15T22:39:37.117Z,2.90
2019-06-15T22:42:07.009Z,2.63
2019-06-15T22:44:37.278Z,3.57
2019-06-15T22:47:06.924Z,2.77
2019-06-15T22:49:36.032Z,2.80
2019-06-15T22:52:06.520Z,2.90
2019-06-15T22:54:37.350Z,2.80
2019-06-15T22:57:06.189Z,4.10
2019-06-15T22:59:34.900Z,3.60
2019-06-15T23:02:03.494Z,3.07
2019-06-15T23:04:32.024Z,3.13
2019-06-15T23:07:00.689Z,4.23
2019-06-15T23:09:29.261Z,8.30
2019-06-15T23:11:57.823Z,2.90
2019-06-15T23:14:26.407Z,3.40
2019-06-15T23:16:56.764Z,3.60
2019-06-15T23:19:26.192Z,5.37
2019-06-15T23:21:56.992Z,4.10
2019-06-15T23:24:27.265Z,3.10
2019-06-15T23:26:57.067Z,4.10
2019-06-15T23:29:27.079Z,2.93
2019-06-15T23:31:57.198Z,4.83
2019-06-15T23:34:27.056Z,4.27
2019-06-15T23:37:00.741Z,3.30
2019-06-15T23:39:27.783Z,3.33
2019-06-15T23:41:56.400Z,3.43
2019-06-15T23:44:27.051Z,4.97
2019-06-15T23:46:55.250Z,2.47
2019-06-15T23:49:23.814Z,3.20
2019-06-15T23:51:52.733Z,3.00
2019-06-15T23:54:21.317Z,2.77
2019-06-15T23:56:49.881Z,3.03
2019-06-15T23:59:18.668Z,2.63
